Time;durP1;ratioP1;P1;durP2;ratioP2;P2;SDS_P1;SDS_P2;PMS_P1;PMS_P2;Temp;Humidity;BMP_temperature;BMP_pressure;BME280_temperature;BME280_humidity;BME280_pressure;Samples;Min_cycle;Max_cycle;Signal;HPM_P1;HPM_P2
2023/12/14 00:01:40;;;;;;;13.20;6.80;;;;;;;;;;5075256;28;20085;-33
2023/12/14 00:04:05;;;;;;;10.57;6.93;;;;;;;;;;5074403;28;20024;-34
2023/12/14 00:06:30;;;;;;;12.20;6.43;;;;;;;;;;5076099;28;20154;-34
2023/12/14 00:08:55;;;;;;;12.47;6.90;;;;;;;;;;5076664;28;20023;-34
2023/12/14 00:11:21;;;;;;;13.93;7.60;;;;;;;;;;5075798;28;20681;-34
2023/12/14 00:13:46;;;;;;;10.65;7.45;;;;;;;;;;5074739;28;20024;-34
2023/12/14 00:16:11;;;;;;;11.43;7.90;;;;;;;;;;5075949;28;20126;-34
2023/12/14 00:18:37;;;;;;;11.70;8.18;;;;;;;;;;5074638;28;20286;-34
2023/12/14 00:21:02;;;;;;;11.48;8.00;;;;;;;;;;5074589;28;20023;-34
2023/12/14 00:23:27;;;;;;;12.52;8.00;;;;;;;;;;5076378;28;20028;-34
2023/12/14 00:25:53;;;;;;;12.98;7.70;;;;;;;;;;5076273;28;20059;-34
2023/12/14 00:28:18;;;;;;;13.73;7.60;;;;;;;;;;5076039;28;20024;-33
2023/12/14 00:30:43;;;;;;;13.48;7.97;;;;;;;;;;5075599;28;20020;-34
2023/12/14 00:33:09;;;;;;;15.15;7.68;;;;;;;;;;5076188;28;20016;-34
2023/12/14 00:35:34;;;;;;;11.20;7.25;;;;;;;;;;5074318;28;20024;-33
2023/12/14 00:37:59;;;;;;;16.00;8.05;;;;;;;;;;5075469;28;20062;-33
2023/12/14 00:40:25;;;;;;;15.10;7.73;;;;;;;;;;5075485;28;20074;-34
2023/12/14 00:42:51;;;;;;;13.07;7.70;;;;;;;;;;5074147;28;20278;-34
2023/12/14 00:45:16;;;;;;;12.90;7.97;;;;;;;;;;5075441;28;20023;-33
2023/12/14 00:47:41;;;;;;;13.35;7.88;;;;;;;;;;5074084;28;20107;-34
2023/12/14 00:50:06;;;;;;;12.15;7.72;;;;;;;;;;5075358;28;20025;-34
2023/12/14 00:52:32;;;;;;;13.40;7.55;;;;;;;;;;5075114;28;20024;-34
2023/12/14 00:54:57;;;;;;;11.20;7.38;;;;;;;;;;5075172;28;20024;-34
2023/12/14 00:57:23;;;;;;;16.70;8.00;;;;;;;;;;5075174;28;20016;-34
2023/12/14 00:59:48;;;;;;;11.70;7.25;;;;;;;;;;5073792;28;20267;-34
2023/12/14 01:02:13;;;;;;;12.18;7.28;;;;;;;;;;5072877;28;20049;-34
2023/12/14 01:04:38;;;;;;;11.07;7.53;;;;;;;;;;5073706;28;20126;-34
2023/12/14 01:07:04;;;;;;;12.23;7.28;;;;;;;;;;5074963;28;20027;-34
2023/12/14 01:09:29;;;;;;;10.63;7.22;;;;;;;;;;5075191;28;20020;-34
2023/12/14 01:11:54;;;;;;;13.03;7.73;;;;;;;;;;5074702;28;20490;-34
2023/12/14 01:14:19;;;;;;;11.95;7.53;;;;;;;;;;5073520;28;20269;-34
2023/12/14 01:16:45;;;;;;;13.25;7.15;;;;;;;;;;5073520;28;20019;-34
2023/12/14 01:19:10;;;;;;;14.55;7.72;;;;;;;;;;5073675;28;20016;-34
2023/12/14 01:21:35;;;;;;;11.98;7.20;;;;;;;;;;5073261;28;20025;-34
2023/12/14 01:24:01;;;;;;;10.98;7.00;;;;;;;;;;5074403;28;20105;-35
2023/12/14 01:26:26;;;;;;;11.37;7.53;;;;;;;;;;5074856;28;20032;-34
2023/12/14 01:28:52;;;;;;;14.20;7.45;;;;;;;;;;5074425;28;20246;-34
2023/12/14 01:31:17;;;;;;;11.88;7.55;;;;;;;;;;5074382;28;20024;-34
2023/12/14 01:33:42;;;;;;;11.88;7.43;;;;;;;;;;5074355;28;20017;-34
2023/12/14 01:36:07;;;;;;;11.60;7.90;;;;;;;;;;5074379;28;20121;-34
2023/12/14 01:38:33;;;;;;;13.63;7.82;;;;;;;;;;5074336;28;20062;-34
2023/12/14 01:40:59;;;;;;;15.90;8.07;;;;;;;;;;5072943;28;20038;-34
2023/12/14 01:43:24;;;;;;;12.45;7.72;;;;;;;;;;5073268;28;20531;-34
2023/12/14 01:45:49;;;;;;;13.77;8.13;;;;;;;;;;5074104;28;20095;-34
2023/12/14 01:48:14;;;;;;;13.68;8.10;;;;;;;;;;5072852;28;20266;-34
2023/12/14 01:50:39;;;;;;;15.57;8.43;;;;;;;;;;5074064;28;20020;-34
2023/12/14 01:53:05;;;;;;;13.23;7.40;;;;;;;;;;5074314;28;20354;-34
2023/12/14 01:55:30;;;;;;;16.00;8.93;;;;;;;;;;5074260;28;20255;-34
2023/12/14 01:57:55;;;;;;;15.88;9.25;;;;;;;;;;5074229;28;20017;-34
2023/12/14 02:00:26;;;;;;;14.73;8.57;;;;;;;;;;5072703;28;20111;-34
2023/12/14 02:02:52;;;;;;;13.38;8.13;;;;;;;;;;5073810;28;20055;-34
2023/12/14 02:05:17;;;;;;;15.60;8.80;;;;;;;;;;5074514;28;20020;-34
2023/12/14 02:07:42;;;;;;;13.82;8.43;;;;;;;;;;5073791;28;20766;-33
2023/12/14 02:10:07;;;;;;;14.75;8.30;;;;;;;;;;5074352;28;20028;-33
2023/12/14 02:12:34;;;;;;;14.70;7.97;;;;;;;;;;5073307;28;20038;-33
2023/12/14 02:14:59;;;;;;;12.65;8.05;;;;;;;;;;5070494;28;20099;-34
2023/12/14 02:17:24;;;;;;;14.60;8.18;;;;;;;;;;5073401;28;20544;-33
2023/12/14 02:19:49;;;;;;;11.95;7.60;;;;;;;;;;5073825;28;20016;-33
2023/12/14 02:22:16;;;;;;;13.17;8.10;;;;;;;;;;5073329;28;20048;-33
2023/12/14 02:24:41;;;;;;;12.38;7.85;;;;;;;;;;5073517;28;20320;-34
2023/12/14 02:27:06;;;;;;;14.43;8.27;;;;;;;;;;5074225;28;20024;-33
2023/12/14 02:29:32;;;;;;;14.67;8.20;;;;;;;;;;5073652;28;20297;-33
2023/12/14 02:31:57;;;;;;;15.80;8.25;;;;;;;;;;5073712;28;20290;-33
2023/12/14 02:34:24;;;;;;;17.00;7.87;;;;;;;;;;5073619;28;20053;-33
2023/12/14 02:36:50;;;;;;;17.40;8.32;;;;;;;;;;5073939;28;20255;-33
2023/12/14 02:39:15;;;;;;;14.55;7.85;;;;;;;;;;5073515;28;20031;-33
2023/12/14 02:41:40;;;;;;;16.80;8.38;;;;;;;;;;5074039;28;20107;-32
2023/12/14 02:44:05;;;;;;;16.25;7.47;;;;;;;;;;5073429;28;20024;-33
2023/12/14 02:46:30;;;;;;;13.25;7.85;;;;;;;;;;5073658;28;20069;-33
2023/12/14 02:48:56;;;;;;;13.83;8.03;;;;;;;;;;5073468;28;20357;-33
2023/12/14 02:51:21;;;;;;;16.73;8.80;;;;;;;;;;5073244;28;20291;-33
2023/12/14 02:53:47;;;;;;;15.02;8.05;;;;;;;;;;5073240;28;20078;-33
2023/12/14 02:56:12;;;;;;;14.33;7.73;;;;;;;;;;5073405;28;20023;-33
2023/12/14 02:58:37;;;;;;;13.85;7.40;;;;;;;;;;5072068;28;20347;-33
2023/12/14 03:01:03;;;;;;;15.35;7.72;;;;;;;;;;5072096;28;20027;-32
2023/12/14 03:03:28;;;;;;;15.20;7.10;;;;;;;;;;5073109;28;20434;-33
2023/12/14 03:05:54;;;;;;;14.00;7.50;;;;;;;;;;5074056;28;20023;-33
2023/12/14 03:08:19;;;;;;;17.77;7.45;;;;;;;;;;5073730;28;20338;-33
2023/12/14 03:10:44;;;;;;;13.35;7.28;;;;;;;;;;5073165;28;20055;-34
2023/12/14 03:13:09;;;;;;;14.35;7.35;;;;;;;;;;5072091;28;20048;-33
2023/12/14 03:15:35;;;;;;;15.50;6.65;;;;;;;;;;5073696;28;20017;-33
2023/12/14 03:18:00;;;;;;;11.55;6.60;;;;;;;;;;5073031;28;20020;-33
2023/12/14 03:20:25;;;;;;;15.25;6.93;;;;;;;;;;5073037;28;20055;-33
2023/12/14 03:22:51;;;;;;;17.08;6.80;;;;;;;;;;5073616;28;20012;-33
2023/12/14 03:25:16;;;;;;;17.00;6.50;;;;;;;;;;5073309;28;20043;-33
2023/12/14 03:27:41;;;;;;;12.90;6.75;;;;;;;;;;5076795;28;20101;-33
2023/12/14 03:30:09;;;;;;;13.18;6.22;;;;;;;;;;5075566;28;20193;-32
2023/12/14 03:32:34;;;;;;;13.40;5.97;;;;;;;;;;5076683;28;20108;-34
2023/12/14 03:35:00;;;;;;;10.93;6.07;;;;;;;;;;5076683;28;20052;-33
2023/12/14 03:37:25;;;;;;;17.08;6.65;;;;;;;;;;5076528;28;20095;-32
2023/12/14 03:39:51;;;;;;;11.13;6.00;;;;;;;;;;5076526;28;20522;-33
2023/12/14 03:42:16;;;;;;;14.80;6.25;;;;;;;;;;5076737;28;20258;-33
2023/12/14 03:44:41;;;;;;;12.52;6.03;;;;;;;;;;5076673;28;20051;-33
2023/12/14 03:47:07;;;;;;;17.53;5.97;;;;;;;;;;5075133;28;20032;-33
2023/12/14 03:49:36;;;;;;;11.85;6.15;;;;;;;;;;5076563;28;20262;-33
2023/12/14 03:52:01;;;;;;;11.07;5.95;;;;;;;;;;5076548;28;20024;-32
2023/12/14 03:54:26;;;;;;;13.07;6.10;;;;;;;;;;5076796;28;20021;-33
2023/12/14 03:56:51;;;;;;;14.40;5.93;;;;;;;;;;5076205;28;20243;-33
2023/12/14 03:59:17;;;;;;;11.98;5.82;;;;;;;;;;5076184;28;20302;-33
2023/12/14 04:01:42;;;;;;;12.40;5.57;;;;;;;;;;5076128;28;20080;-32
2023/12/14 04:04:07;;;;;;;13.63;6.10;;;;;;;;;;5076007;28;20277;-33
2023/12/14 04:06:32;;;;;;;9.57;5.47;;;;;;;;;;5076373;28;20020;-33
2023/12/14 04:08:57;;;;;;;11.37;6.17;;;;;;;;;;5076035;28;20013;-33
2023/12/14 04:11:22;;;;;;;11.60;5.40;;;;;;;;;;5076342;28;20419;-33
2023/12/14 04:13:50;;;;;;;15.52;5.53;;;;;;;;;;5076117;28;20606;-33
2023/12/14 04:16:15;;;;;;;12.20;5.40;;;;;;;;;;5076180;28;20106;-33
2023/12/14 04:18:40;;;;;;;11.63;5.40;;;;;;;;;;5076098;28;20016;-33
2023/12/14 04:21:06;;;;;;;12.77;5.20;;;;;;;;;;5075833;28;20021;-33
2023/12/14 04:23:31;;;;;;;16.45;5.13;;;;;;;;;;5075688;28;20346;-33
2023/12/14 04:25:56;;;;;;;9.70;5.10;;;;;;;;;;5075777;28;20379;-32
2023/12/14 04:28:21;;;;;;;8.93;4.97;;;;;;;;;;5075656;28;20320;-33
2023/12/14 04:30:46;;;;;;;7.73;4.87;;;;;;;;;;5075516;28;20254;-33
2023/12/14 04:33:12;;;;;;;8.23;4.68;;;;;;;;;;5075515;28;20255;-33
2023/12/14 04:35:37;;;;;;;8.40;4.57;;;;;;;;;;5075801;28;20027;-33
2023/12/14 04:38:02;;;;;;;11.32;5.00;;;;;;;;;;5075086;28;20247;-33
2023/12/14 04:40:27;;;;;;;8.00;4.50;;;;;;;;;;5075417;28;20118;-33
2023/12/14 04:42:53;;;;;;;8.30;4.80;;;;;;;;;;5075888;28;20247;-33
2023/12/14 04:45:19;;;;;;;9.30;4.88;;;;;;;;;;5075811;28;20333;-33
2023/12/14 04:47:44;;;;;;;9.10;5.00;;;;;;;;;;5076043;28;20043;-33
2023/12/14 04:50:09;;;;;;;8.00;4.30;;;;;;;;;;5075219;28;20012;-33
2023/12/14 04:52:34;;;;;;;9.45;4.75;;;;;;;;;;5075067;28;20027;-33
2023/12/14 04:54:59;;;;;;;7.60;4.25;;;;;;;;;;5075374;28;20525;-33
2023/12/14 04:57:25;;;;;;;6.90;3.97;;;;;;;;;;5075167;28;20070;-33
2023/12/14 04:59:50;;;;;;;7.95;4.90;;;;;;;;;;5074957;28;20255;-33
2023/12/14 05:02:15;;;;;;;7.77;4.30;;;;;;;;;;5075181;28;20059;-33
2023/12/14 05:04:40;;;;;;;6.10;4.05;;;;;;;;;;5075168;28;20277;-33
2023/12/14 05:07:05;;;;;;;6.97;4.23;;;;;;;;;;5074926;28;20383;-33
2023/12/14 05:09:30;;;;;;;8.63;4.32;;;;;;;;;;5073843;28;20266;-32
2023/12/14 05:11:56;;;;;;;6.30;4.30;;;;;;;;;;5074928;28;20024;-32
2023/12/14 05:14:21;;;;;;;6.70;4.20;;;;;;;;;;5075251;28;20254;-33
2023/12/14 05:16:46;;;;;;;6.68;4.28;;;;;;;;;;5074882;28;20791;-33
2023/12/14 05:19:12;;;;;;;6.53;4.45;;;;;;;;;;5074631;28;20019;-32
2023/12/14 05:21:37;;;;;;;7.28;3.95;;;;;;;;;;5074490;28;20106;-31
2023/12/14 05:24:03;;;;;;;8.67;4.53;;;;;;;;;;5074531;28;20028;-31
2023/12/14 05:26:28;;;;;;;7.15;4.22;;;;;;;;;;5074495;28;20614;-32
2023/12/14 05:28:53;;;;;;;7.53;4.57;;;;;;;;;;5074947;28;20013;-32
2023/12/14 05:31:19;;;;;;;7.63;4.28;;;;;;;;;;5074521;28;20826;-32
2023/12/14 05:33:44;;;;;;;8.05;4.55;;;;;;;;;;5074509;28;20016;-32
2023/12/14 05:36:10;;;;;;;8.60;5.03;;;;;;;;;;5074839;28;20456;-32
2023/12/14 05:38:36;;;;;;;9.20;4.75;;;;;;;;;;5074491;28;20020;-32
2023/12/14 05:41:01;;;;;;;7.20;4.65;;;;;;;;;;5074368;28;20372;-32
2023/12/14 05:43:26;;;;;;;7.90;4.87;;;;;;;;;;5074168;28;20020;-32
2023/12/14 05:45:51;;;;;;;10.48;5.05;;;;;;;;;;5074651;28;20250;-32
2023/12/14 05:48:17;;;;;;;6.77;4.27;;;;;;;;;;5074201;28;20020;-32
2023/12/14 05:50:42;;;;;;;11.20;4.30;;;;;;;;;;5074561;28;20295;-33
2023/12/14 05:53:07;;;;;;;8.63;4.90;;;;;;;;;;5074021;28;20100;-32
2023/12/14 05:55:32;;;;;;;6.80;4.33;;;;;;;;;;5074279;28;20420;-32
2023/12/14 05:57:57;;;;;;;7.47;5.07;;;;;;;;;;5074116;28;20738;-32
2023/12/14 06:00:22;;;;;;;8.02;4.55;;;;;;;;;;5074060;28;20016;-32
2023/12/14 06:02:48;;;;;;;13.68;4.82;;;;;;;;;;5073643;28;20036;-32
2023/12/14 06:05:13;;;;;;;9.35;4.82;;;;;;;;;;5074331;28;20066;-32
2023/12/14 06:07:38;;;;;;;11.43;5.60;;;;;;;;;;5073801;28;20013;-32
2023/12/14 06:10:03;;;;;;;10.93;5.32;;;;;;;;;;5073963;28;20471;-32
2023/12/14 06:12:29;;;;;;;10.50;5.38;;;;;;;;;;5074098;28;20020;-32
2023/12/14 06:14:54;;;;;;;10.05;5.18;;;;;;;;;;5073936;28;20067;-32
2023/12/14 06:17:19;;;;;;;8.90;5.43;;;;;;;;;;5073866;28;20021;-32
2023/12/14 06:19:44;;;;;;;8.45;5.10;;;;;;;;;;5074170;28;20017;-32
2023/12/14 06:22:09;;;;;;;9.77;5.40;;;;;;;;;;5073572;28;20103;-33
2023/12/14 06:24:35;;;;;;;10.63;5.50;;;;;;;;;;5074076;28;20102;-32
2023/12/14 06:27:00;;;;;;;8.73;5.47;;;;;;;;;;5073747;28;20247;-32
2023/12/14 06:29:25;;;;;;;9.97;5.93;;;;;;;;;;5073504;28;20027;-32
2023/12/14 06:31:51;;;;;;;9.00;5.10;;;;;;;;;;5073398;28;20278;-32
2023/12/14 06:34:16;;;;;;;9.25;5.15;;;;;;;;;;5073689;28;20349;-32
2023/12/14 06:36:42;;;;;;;11.15;5.53;;;;;;;;;;5073630;28;20368;-33
2023/12/14 06:39:07;;;;;;;8.48;5.05;;;;;;;;;;5073681;28;20426;-32
2023/12/14 06:41:32;;;;;;;7.37;5.13;;;;;;;;;;5073342;28;20095;-32
2023/12/14 06:43:57;;;;;;;8.63;4.80;;;;;;;;;;5073342;28;20258;-32
2023/12/14 06:46:23;;;;;;;10.00;5.17;;;;;;;;;;5073314;28;20259;-31
2023/12/14 06:48:48;;;;;;;8.65;5.25;;;;;;;;;;5073568;28;20354;-33
2023/12/14 06:51:13;;;;;;;10.30;5.18;;;;;;;;;;5073239;28;20358;-32
2023/12/14 06:53:43;;;;;;;8.20;5.70;;;;;;;;;;5073164;28;20021;-32
2023/12/14 06:56:10;;;;;;;13.90;5.55;;;;;;;;;;5073215;28;20061;-31
2023/12/14 06:58:35;;;;;;;7.55;5.30;;;;;;;;;;5073422;28;20020;-33
2023/12/14 07:01:01;;;;;;;8.80;5.00;;;;;;;;;;5076619;28;20023;-33
2023/12/14 07:03:26;;;;;;;7.50;4.77;;;;;;;;;;5077004;28;20048;-33
2023/12/14 07:05:51;;;;;;;6.43;4.60;;;;;;;;;;5077124;28;20254;-34
2023/12/14 07:08:16;;;;;;;6.90;4.80;;;;;;;;;;5077148;28;20385;-33
2023/12/14 07:10:42;;;;;;;7.15;5.20;;;;;;;;;;5077048;28;20247;-33
2023/12/14 07:13:08;;;;;;;9.90;4.88;;;;;;;;;;5076872;28;20028;-33
2023/12/14 07:15:33;;;;;;;10.43;5.03;;;;;;;;;;5077223;28;20017;-34
2023/12/14 07:17:58;;;;;;;7.60;4.70;;;;;;;;;;5076924;28;20375;-34
2023/12/14 07:20:24;;;;;;;8.83;5.07;;;;;;;;;;5077403;28;20305;-34
2023/12/14 07:22:49;;;;;;;8.55;5.10;;;;;;;;;;5076755;28;20808;-35
2023/12/14 07:25:15;;;;;;;9.03;4.83;;;;;;;;;;5076716;28;20027;-33
2023/12/14 07:27:40;;;;;;;8.40;4.88;;;;;;;;;;5076757;28;20246;-35
2023/12/14 07:30:05;;;;;;;8.70;4.87;;;;;;;;;;5076696;28;20459;-34
2023/12/14 07:32:30;;;;;;;9.40;4.82;;;;;;;;;;5075372;28;20298;-34
2023/12/14 07:34:55;;;;;;;8.70;5.43;;;;;;;;;;5074561;28;20486;-33
2023/12/14 07:37:21;;;;;;;6.85;5.00;;;;;;;;;;5074537;28;20254;-33
2023/12/14 07:39:46;;;;;;;7.80;4.80;;;;;;;;;;5076568;28;20376;-34
2023/12/14 07:42:12;;;;;;;7.47;4.85;;;;;;;;;;5076660;28;20341;-33
2023/12/14 07:44:40;;;;;;;8.90;5.30;;;;;;;;;;5075420;28;20101;-33
2023/12/14 07:47:05;;;;;;;12.85;4.72;;;;;;;;;;5076606;28;20020;-34
2023/12/14 07:49:30;;;;;;;8.32;5.28;;;;;;;;;;5076889;28;20428;-33
2023/12/14 07:51:55;;;;;;;8.60;5.30;;;;;;;;;;5076779;28;20108;-33
2023/12/14 07:54:21;;;;;;;9.47;5.00;;;;;;;;;;5076436;28;20251;-32
2023/12/14 07:56:47;;;;;;;12.40;5.55;;;;;;;;;;5076128;28;20725;-33
2023/12/14 07:59:12;;;;;;;7.27;4.70;;;;;;;;;;5076628;28;20066;-33
2023/12/14 08:01:37;;;;;;;8.38;4.80;;;;;;;;;;5076146;28;20657;-32
2023/12/14 08:04:03;;;;;;;12.63;4.80;;;;;;;;;;5076384;28;20023;-33
2023/12/14 08:06:29;;;;;;;8.68;4.70;;;;;;;;;;5076139;28;20609;-32
2023/12/14 08:08:55;;;;;;;8.23;4.72;;;;;;;;;;5075988;28;20099;-33
2023/12/14 08:11:20;;;;;;;7.78;4.80;;;;;;;;;;5075445;28;20071;-33
2023/12/14 08:13:45;;;;;;;10.25;4.80;;;;;;;;;;5074106;28;20017;-33
2023/12/14 08:16:13;;;;;;;9.45;4.97;;;;;;;;;;5073828;28;20013;-33
2023/12/14 08:18:38;;;;;;;7.60;4.78;;;;;;;;;;5074131;28;20095;-33
2023/12/14 08:21:04;;;;;;;6.40;4.53;;;;;;;;;;5073923;28;20138;-32
2023/12/14 08:23:30;;;;;;;7.38;4.90;;;;;;;;;;5074104;28;20013;-33
2023/12/14 08:25:56;;;;;;;6.95;4.55;;;;;;;;;;5074310;28;20016;-33
2023/12/14 08:28:22;;;;;;;6.70;4.32;;;;;;;;;;5074695;28;20066;-32
2023/12/14 08:30:47;;;;;;;7.53;4.70;;;;;;;;;;5075538;28;20106;-32
2023/12/14 08:33:13;;;;;;;7.80;4.60;;;;;;;;;;5075517;28;20070;-33
2023/12/14 08:35:38;;;;;;;5.67;4.30;;;;;;;;;;5075552;28;20662;-33
2023/12/14 08:38:03;;;;;;;8.67;4.87;;;;;;;;;;5075460;28;20251;-33
2023/12/14 08:40:28;;;;;;;6.63;4.37;;;;;;;;;;5075403;28;20344;-33
2023/12/14 08:42:54;;;;;;;6.28;3.83;;;;;;;;;;5075899;28;20251;-33
2023/12/14 08:45:19;;;;;;;6.72;4.50;;;;;;;;;;5075312;28;20044;-33
2023/12/14 08:47:44;;;;;;;6.83;4.50;;;;;;;;;;5075223;28;20486;-33
2023/12/14 08:50:09;;;;;;;6.63;4.30;;;;;;;;;;5074787;28;20379;-35
2023/12/14 08:52:34;;;;;;;11.25;4.60;;;;;;;;;;5074631;28;20630;-33
2023/12/14 08:55:01;;;;;;;6.40;3.97;;;;;;;;;;5074681;28;20069;-33
2023/12/14 08:57:26;;;;;;;13.25;3.90;;;;;;;;;;5074659;28;20806;-33
2023/12/14 08:59:51;;;;;;;6.35;3.70;;;;;;;;;;5074795;28;20021;-33
2023/12/14 09:02:16;;;;;;;8.37;4.40;;;;;;;;;;5074463;28;20137;-33
2023/12/14 09:04:42;;;;;;;6.07;3.63;;;;;;;;;;5074850;28;20599;-34
2023/12/14 09:07:07;;;;;;;5.95;3.72;;;;;;;;;;5075195;28;20316;-33
2023/12/14 09:09:32;;;;;;;5.60;3.60;;;;;;;;;;5075452;28;20017;-33
2023/12/14 09:11:58;;;;;;;8.60;4.20;;;;;;;;;;5075131;28;20423;-33
2023/12/14 09:14:23;;;;;;;5.43;3.80;;;;;;;;;;5074798;28;20090;-33
2023/12/14 09:16:48;;;;;;;5.07;3.63;;;;;;;;;;5074960;28;20016;-33
2023/12/14 09:19:13;;;;;;;7.60;3.57;;;;;;;;;;5074540;28;20267;-33
2023/12/14 09:21:38;;;;;;;11.70;4.13;;;;;;;;;;5075097;28;20247;-32
2023/12/14 09:24:04;;;;;;;10.37;3.87;;;;;;;;;;5073938;28;20291;-33
2023/12/14 09:26:29;;;;;;;8.63;3.90;;;;;;;;;;5075021;28;20246;-33
2023/12/14 09:28:54;;;;;;;6.47;3.70;;;;;;;;;;5074448;28;20467;-32
2023/12/14 09:31:19;;;;;;;7.23;4.03;;;;;;;;;;5074658;28;20306;-33
2023/12/14 09:33:44;;;;;;;6.20;3.85;;;;;;;;;;5074491;28;20255;-33
2023/12/14 09:36:10;;;;;;;8.03;3.60;;;;;;;;;;5074903;28;20013;-35
2023/12/14 09:38:36;;;;;;;8.25;3.45;;;;;;;;;;5074581;28;20262;-32
2023/12/14 09:41:01;;;;;;;5.05;3.22;;;;;;;;;;5074476;28;20020;-33
2023/12/14 09:43:26;;;;;;;4.50;3.35;;;;;;;;;;5074357;28;20581;-33
2023/12/14 09:45:52;;;;;;;6.00;3.22;;;;;;;;;;5074695;28;20017;-33
2023/12/14 09:48:17;;;;;;;6.93;3.30;;;;;;;;;;5074596;28;20021;-33
2023/12/14 09:50:43;;;;;;;4.15;2.88;;;;;;;;;;5074381;28;20028;-34
2023/12/14 09:53:08;;;;;;;3.92;3.05;;;;;;;;;;5074449;28;20021;-35
2023/12/14 09:55:34;;;;;;;5.35;3.33;;;;;;;;;;5074213;28;20058;-34
2023/12/14 09:57:59;;;;;;;8.68;3.22;;;;;;;;;;5074180;28;20033;-34
2023/12/14 10:00:34;;;;;;;5.00;3.30;;;;;;;;;;5074118;28;20021;-39
2023/12/14 10:03:17;;;;;;;6.70;3.20;;;;;;;;;;5073965;28;20041;-34
2023/12/14 10:05:42;;;;;;;6.03;3.28;;;;;;;;;;5072954;28;20024;-33
2023/12/14 10:08:08;;;;;;;5.85;3.40;;;;;;;;;;5074479;28;20030;-33
2023/12/14 10:10:34;;;;;;;6.40;3.20;;;;;;;;;;5074555;28;20028;-33
2023/12/14 10:12:59;;;;;;;4.38;2.83;;;;;;;;;;5074107;28;20027;-34
2023/12/14 10:15:26;;;;;;;4.75;3.20;;;;;;;;;;5072353;28;20091;-33
2023/12/14 10:17:55;;;;;;;4.70;2.90;;;;;;;;;;5073491;28;20529;-33
2023/12/14 10:20:26;;;;;;;5.68;2.97;;;;;;;;;;5072504;28;20067;-33
2023/12/14 10:22:51;;;;;;;4.97;2.97;;;;;;;;;;5074084;28;20515;-33
2023/12/14 10:25:18;;;;;;;6.30;3.10;;;;;;;;;;5072489;28;20044;-33
2023/12/14 10:27:46;;;;;;;7.95;3.67;;;;;;;;;;5073712;28;20077;-33
2023/12/14 10:30:12;;;;;;;5.95;3.17;;;;;;;;;;5074262;28;20028;-33
2023/12/14 10:32:37;;;;;;;5.35;3.60;;;;;;;;;;5073942;28;20115;-33
2023/12/14 10:35:03;;;;;;;6.88;3.70;;;;;;;;;;5074144;28;20051;-33
2023/12/14 10:37:29;;;;;;;7.13;4.88;;;;;;;;;;5074071;28;20056;-33
2023/12/14 10:39:55;;;;;;;6.00;3.33;;;;;;;;;;5073627;28;20301;-33
2023/12/14 10:42:21;;;;;;;6.28;3.40;;;;;;;;;;5073635;28;20024;-33
2023/12/14 10:44:48;;;;;;;6.50;3.67;;;;;;;;;;5073392;28;20048;-33
2023/12/14 10:47:15;;;;;;;5.82;3.50;;;;;;;;;;5073365;28;20029;-39
2023/12/14 10:49:41;;;;;;;5.85;3.70;;;;;;;;;;5073506;28;20040;-34
2023/12/14 10:52:06;;;;;;;7.10;3.83;;;;;;;;;;5073856;28;20423;-33
2023/12/14 10:54:35;;;;;;;5.63;3.40;;;;;;;;;;5072827;28;20379;-33
2023/12/14 10:57:00;;;;;;;9.95;3.78;;;;;;;;;;5073631;28;20021;-33
2023/12/14 10:59:25;;;;;;;6.93;3.50;;;;;;;;;;5073559;28;20047;-33
2023/12/14 11:01:51;;;;;;;7.07;3.40;;;;;;;;;;5073569;28;20048;-33
2023/12/14 11:04:17;;;;;;;7.85;4.03;;;;;;;;;;5071793;28;20021;-34
2023/12/14 11:06:47;;;;;;;7.80;3.45;;;;;;;;;;5073517;28;20028;-33
2023/12/14 11:09:14;;;;;;;5.55;3.40;;;;;;;;;;5072633;28;20017;-33
2023/12/14 11:11:47;;;;;;;5.07;3.25;;;;;;;;;;5073237;28;20421;-33
2023/12/14 11:14:18;;;;;;;7.55;4.35;;;;;;;;;;5073820;28;20103;-33
2023/12/14 11:16:44;;;;;;;6.90;3.70;;;;;;;;;;5073208;28;20081;-32
2023/12/14 11:19:18;;;;;;;6.35;4.10;;;;;;;;;;5073414;28;20021;-33
2023/12/14 11:21:44;;;;;;;9.77;5.28;;;;;;;;;;5073591;28;20020;-33
2023/12/14 11:24:09;;;;;;;7.43;5.30;;;;;;;;;;5073352;28;20158;-33
2023/12/14 11:26:35;;;;;;;7.63;3.88;;;;;;;;;;5073284;28;20023;-32
2023/12/14 11:29:00;;;;;;;4.85;3.30;;;;;;;;;;5071814;28;20093;-33
2023/12/14 11:31:27;;;;;;;7.63;3.60;;;;;;;;;;5073338;28;20095;-33
2023/12/14 11:33:53;;;;;;;8.45;5.65;;;;;;;;;;5073213;28;20015;-33
2023/12/14 11:36:18;;;;;;;6.47;3.95;;;;;;;;;;5073113;28;20017;-33
2023/12/14 11:38:47;;;;;;;6.57;3.65;;;;;;;;;;5073708;28;20016;-33
2023/12/14 11:41:13;;;;;;;5.88;3.40;;;;;;;;;;5071076;28;20066;-33
2023/12/14 11:43:38;;;;;;;5.88;3.70;;;;;;;;;;5071606;28;20511;-33
2023/12/14 11:46:03;;;;;;;5.13;3.33;;;;;;;;;;5073729;28;20017;-33
2023/12/14 11:48:29;;;;;;;6.03;3.70;;;;;;;;;;5076634;28;20009;-33
2023/12/14 11:50:54;;;;;;;7.60;3.27;;;;;;;;;;5074191;28;20381;-33
2023/12/14 11:53:19;;;;;;;7.28;4.20;;;;;;;;;;5076002;28;20633;-33
2023/12/14 11:55:44;;;;;;;6.43;3.38;;;;;;;;;;5076064;28;20020;-33
2023/12/14 11:58:16;;;;;;;7.45;3.50;;;;;;;;;;5075752;28;20039;-34
2023/12/14 12:00:41;;;;;;;6.50;3.60;;;;;;;;;;5076004;28;20039;-33
2023/12/14 12:03:08;;;;;;;11.90;5.90;;;;;;;;;;5075115;28;20495;-34
2023/12/14 12:05:52;;;;;;;5.97;3.60;;;;;;;;;;5075478;28;20494;-34
2023/12/14 12:08:18;;;;;;;10.23;4.43;;;;;;;;;;5076037;28;20462;-33
2023/12/14 12:10:44;;;;;;;9.95;4.72;;;;;;;;;;5074871;28;20103;-33
2023/12/14 12:13:14;;;;;;;11.82;4.95;;;;;;;;;;5075493;28;20108;-32
2023/12/14 12:15:43;;;;;;;13.95;5.97;;;;;;;;;;5075652;28;20099;-33
2023/12/14 12:18:09;;;;;;;13.00;5.15;;;;;;;;;;5057759;28;20017;-33
2023/12/14 12:20:34;;;;;;;10.43;4.20;;;;;;;;;;5075526;28;20017;-33
2023/12/14 12:23:00;;;;;;;7.03;3.97;;;;;;;;;;5075852;28;20483;-33
2023/12/14 12:25:27;;;;;;;7.95;4.05;;;;;;;;;;5075151;28;20035;-33
2023/12/14 12:27:52;;;;;;;7.22;3.63;;;;;;;;;;5075821;28;20467;-32
2023/12/14 12:30:17;;;;;;;9.93;4.20;;;;;;;;;;5075433;28;20039;-33
2023/12/14 12:32:43;;;;;;;26.65;15.25;;;;;;;;;;5075630;28;20302;-34
2023/12/14 12:35:09;;;;;;;9.63;5.85;;;;;;;;;;5076361;28;20360;-34
2023/12/14 12:37:34;;;;;;;11.15;5.43;;;;;;;;;;5074959;28;20020;-35
2023/12/14 12:39:59;;;;;;;10.30;5.47;;;;;;;;;;5075391;28;20020;-34
2023/12/14 12:42:25;;;;;;;10.30;5.40;;;;;;;;;;5075275;28;20377;-34
2023/12/14 12:44:50;;;;;;;11.85;5.30;;;;;;;;;;5075414;28;20478;-34
2023/12/14 12:47:15;;;;;;;9.77;4.93;;;;;;;;;;5075311;28;20359;-33
2023/12/14 12:49:40;;;;;;;9.03;5.47;;;;;;;;;;5075414;28;20446;-33
2023/12/14 12:52:06;;;;;;;10.50;5.60;;;;;;;;;;5074319;28;20287;-34
2023/12/14 12:54:32;;;;;;;8.23;5.32;;;;;;;;;;5074260;28;20254;-34
2023/12/14 12:56:57;;;;;;;10.32;5.80;;;;;;;;;;5074283;28;20017;-34
2023/12/14 12:59:23;;;;;;;10.90;5.70;;;;;;;;;;5074802;28;20020;-32
2023/12/14 13:01:48;;;;;;;10.63;5.93;;;;;;;;;;5074567;28;20305;-34
2023/12/14 13:04:20;;;;;;;12.23;5.60;;;;;;;;;;5075313;28;20303;-33
2023/12/14 13:06:46;;;;;;;9.48;6.13;;;;;;;;;;5073740;28;20340;-34
2023/12/14 13:09:11;;;;;;;9.40;6.10;;;;;;;;;;5073638;28;20108;-33
2023/12/14 13:11:37;;;;;;;10.75;6.03;;;;;;;;;;5074113;28;20138;-33
2023/12/14 13:14:07;;;;;;;10.30;6.40;;;;;;;;;;5075115;28;20087;-33
2023/12/14 13:16:32;;;;;;;12.68;6.93;;;;;;;;;;5074763;28;20761;-33
2023/12/14 13:18:57;;;;;;;10.93;6.57;;;;;;;;;;5074765;28;20103;-33
2023/12/14 13:21:23;;;;;;;11.80;6.40;;;;;;;;;;5073246;28;20263;-33
2023/12/14 13:23:50;;;;;;;10.90;6.68;;;;;;;;;;5074238;28;20028;-33
2023/12/14 13:26:15;;;;;;;13.25;6.60;;;;;;;;;;5075059;28;20016;-34
2023/12/14 13:28:40;;;;;;;10.75;6.25;;;;;;;;;;5074310;28;20024;-33
2023/12/14 13:31:06;;;;;;;10.43;6.40;;;;;;;;;;5074229;28;20052;-34
2023/12/14 13:33:31;;;;;;;9.98;6.28;;;;;;;;;;5074465;28;20267;-34
2023/12/14 13:35:56;;;;;;;9.70;6.30;;;;;;;;;;5074719;28;20012;-33
2023/12/14 13:38:21;;;;;;;11.45;6.60;;;;;;;;;;5074421;28;20020;-33
2023/12/14 13:40:47;;;;;;;8.90;6.28;;;;;;;;;;5074419;28;20467;-33
2023/12/14 13:43:12;;;;;;;9.67;6.33;;;;;;;;;;5074354;28;20426;-33
2023/12/14 13:45:38;;;;;;;10.73;6.25;;;;;;;;;;5073970;28;20324;-33
2023/12/14 13:48:03;;;;;;;9.02;6.20;;;;;;;;;;5074542;28;20047;-33
2023/12/14 13:50:28;;;;;;;9.82;6.50;;;;;;;;;;5074303;28;20030;-33
2023/12/14 13:52:53;;;;;;;12.70;6.50;;;;;;;;;;5073872;28;20060;-33
2023/12/14 13:55:19;;;;;;;10.93;6.05;;;;;;;;;;5073998;28;20764;-33
2023/12/14 13:57:45;;;;;;;11.95;6.53;;;;;;;;;;5074023;28;20100;-34
2023/12/14 14:00:11;;;;;;;29.05;11.13;;;;;;;;;;5071842;28;20024;-34
2023/12/14 14:02:37;;;;;;;12.90;7.53;;;;;;;;;;5072488;28;20044;-34
2023/12/14 14:05:03;;;;;;;12.45;6.10;;;;;;;;;;5072384;28;20032;-33
2023/12/14 14:07:28;;;;;;;10.57;6.20;;;;;;;;;;5073640;28;20028;-33
2023/12/14 14:09:53;;;;;;;11.70;6.72;;;;;;;;;;5071972;28;20017;-33
2023/12/14 14:12:19;;;;;;;14.25;5.95;;;;;;;;;;5073633;28;20024;-33
2023/12/14 14:14:44;;;;;;;12.77;6.60;;;;;;;;;;5073458;28;20012;-34
2023/12/14 14:17:10;;;;;;;12.25;6.70;;;;;;;;;;5072749;28;20333;-34
2023/12/14 14:19:35;;;;;;;11.82;6.75;;;;;;;;;;5073521;28;20013;-33
2023/12/14 14:22:00;;;;;;;13.27;7.00;;;;;;;;;;5073677;28;20409;-34
2023/12/14 14:24:25;;;;;;;11.40;6.57;;;;;;;;;;5073393;28;20347;-33
2023/12/14 14:26:51;;;;;;;14.05;7.55;;;;;;;;;;5073582;28;20586;-34